createdAt,value
2018-01-15T11:35:42.115Z,620.00
2018-01-15T11:36:42.011Z,632.00
2018-01-15T11:37:41.988Z,640.00
2018-01-15T11:38:41.977Z,624.00
2018-01-15T11:39:41.979Z,640.00
2018-01-15T11:40:41.975Z,656.00
2018-01-15T11:41:41.964Z,668.00
2018-01-15T11:42:41.965Z,692.00
2018-01-15T11:43:41.980Z,728.00
2018-01-15T11:44:41.957Z,752.00
2018-01-15T11:45:41.965Z,776.00
2018-01-15T11:46:41.941Z,764.00
2018-01-15T11:47:41.963Z,840.00
2018-01-15T11:48:42.103Z,836.00
2018-01-15T11:49:41.955Z,840.00
2018-01-15T11:50:41.950Z,860.00
2018-01-15T11:51:41.946Z,912.00
2018-01-15T11:52:41.942Z,996.00
2018-01-15T11:53:41.933Z,1092.00
2018-01-15T11:54:41.934Z,1088.00
2018-01-15T11:55:41.933Z,896.00
2018-01-15T11:56:41.926Z,856.00
2018-01-15T11:57:41.917Z,856.00
2018-01-15T11:58:41.911Z,852.00
2018-01-15T11:59:42.254Z,800.00
2018-01-15T12:00:41.911Z,772.00
2018-01-15T12:01:41.901Z,860.00
2018-01-15T12:02:41.902Z,852.00
2018-01-15T12:03:41.893Z,868.00
2018-01-15T12:04:41.890Z,904.00
2018-01-15T12:05:41.885Z,880.00
2018-01-15T12:06:41.887Z,920.00
2018-01-15T12:07:41.883Z,944.00
2018-01-15T12:08:41.922Z,968.00
2018-01-15T12:09:41.876Z,968.00
2018-01-15T12:10:41.871Z,1000.00
2018-01-15T12:11:41.868Z,1032.00
2018-01-15T12:12:41.865Z,1072.00
2018-01-15T12:13:41.861Z,1136.00
2018-01-15T12:14:41.857Z,1020.00
2018-01-15T12:15:41.847Z,1012.00
2018-01-15T12:16:41.830Z,988.00
2018-01-15T12:17:41.847Z,1048.00
2018-01-15T12:18:41.836Z,1060.00
2018-01-15T12:19:41.833Z,1092.00
2018-01-15T12:20:41.817Z,1112.00
2018-01-15T12:21:41.832Z,1128.00
2018-01-15T12:22:41.809Z,1124.00
2018-01-15T12:23:41.799Z,1168.00
2018-01-15T12:24:41.802Z,1148.00
2018-01-15T12:25:41.798Z,1132.00
2018-01-15T12:26:41.795Z,1060.00
2018-01-15T12:27:41.791Z,972.00
2018-01-15T12:28:41.786Z,960.00
2018-01-15T12:29:41.784Z,908.00
2018-01-15T12:30:41.781Z,896.00
2018-01-15T12:31:41.777Z,868.00
2018-01-15T12:32:41.774Z,768.00
2018-01-15T12:33:41.771Z,752.00
2018-01-15T12:34:41.766Z,752.00
2018-01-15T12:35:41.768Z,720.00
2018-01-15T12:36:41.761Z,748.00
2018-01-15T12:37:41.756Z,784.00
2018-01-15T12:38:41.759Z,768.00
2018-01-15T12:39:41.750Z,788.00
2018-01-15T12:40:41.747Z,820.00
2018-01-15T12:41:41.754Z,824.00
2018-01-15T12:42:41.739Z,784.00
2018-01-15T12:43:41.752Z,820.00
2018-01-15T12:44:41.734Z,836.00
2018-01-15T12:45:41.735Z,844.00
2018-01-15T12:46:41.734Z,828.00
2018-01-15T12:47:41.825Z,856.00
2018-01-15T12:48:41.724Z,864.00
2018-01-15T12:49:41.720Z,856.00
2018-01-15T12:50:41.705Z,868.00
2018-01-15T12:51:41.728Z,880.00
2018-01-15T12:52:41.706Z,880.00
2018-01-15T12:53:41.722Z,868.00
2018-01-15T12:54:41.702Z,868.00
2018-01-15T12:55:41.716Z,868.00
2018-01-15T12:56:41.712Z,896.00
2018-01-15T12:57:41.692Z,892.00
2018-01-15T12:58:41.679Z,880.00
2018-01-15T12:59:41.689Z,908.00
2018-01-15T13:00:41.682Z,912.00
2018-01-15T13:01:41.675Z,952.00
2018-01-15T13:02:41.675Z,988.00
2018-01-15T13:03:41.687Z,952.00
2018-01-15T13:04:41.684Z,936.00
2018-01-15T13:05:41.682Z,1032.00
2018-01-15T13:06:41.677Z,1012.00
2018-01-15T13:07:41.653Z,1056.00
2018-01-15T13:08:41.651Z,1084.00
2018-01-15T13:09:41.654Z,1004.00
2018-01-15T13:10:41.648Z,1084.00
2018-01-15T13:11:41.656Z,1064.00
2018-01-15T13:12:41.660Z,1084.00
2018-01-15T13:13:41.650Z,1136.00
2018-01-15T13:14:41.648Z,1132.00
2018-01-15T13:15:41.633Z,1112.00
2018-01-15T13:16:41.630Z,1108.00
2018-01-15T13:17:41.627Z,1088.00
2018-01-15T13:18:41.619Z,1072.00
2018-01-15T13:19:41.631Z,1048.00
2018-01-15T13:20:41.613Z,1024.00
2018-01-15T13:21:41.615Z,1000.00
2018-01-15T13:22:41.611Z,980.00
2018-01-15T13:23:41.604Z,988.00
2018-01-15T13:24:41.606Z,980.00
2018-01-15T13:25:41.603Z,976.00
2018-01-15T13:26:41.594Z,976.00
2018-01-15T13:27:41.590Z,980.00
2018-01-15T13:28:41.589Z,976.00
2018-01-15T13:29:41.590Z,968.00
2018-01-15T13:30:41.586Z,984.00
2018-01-15T13:31:41.594Z,964.00
2018-01-15T13:32:41.576Z,976.00
2018-01-15T13:33:41.578Z,996.00
2018-01-15T13:34:41.585Z,1004.00
2018-01-15T13:35:41.567Z,1020.00
2018-01-15T13:36:41.583Z,1044.00
2018-01-15T13:37:41.561Z,1056.00
2018-01-15T13:38:41.572Z,1080.00
2018-01-15T13:39:41.558Z,1088.00
2018-01-15T13:40:41.567Z,1096.00
2018-01-15T13:41:41.550Z,1120.00
2018-01-15T13:42:41.564Z,1132.00
2018-01-15T13:43:41.561Z,1144.00
2018-01-15T13:44:41.554Z,1156.00
2018-01-15T13:45:41.541Z,1176.00
2018-01-15T13:46:41.536Z,1184.00
2018-01-15T13:47:41.534Z,1208.00
2018-01-15T13:48:41.531Z,1208.00
2018-01-15T13:49:41.540Z,1192.00
2018-01-15T13:50:41.525Z,1184.00
2018-01-15T13:51:41.533Z,1172.00
2018-01-15T13:52:41.535Z,1148.00
2018-01-15T13:53:41.518Z,1144.00
2018-01-15T13:54:41.533Z,1136.00
2018-01-15T13:55:41.511Z,1140.00
2018-01-15T13:56:41.509Z,1144.00
2018-01-15T13:57:41.507Z,1148.00
2018-01-15T13:58:41.509Z,1156.00
2018-01-15T13:59:41.517Z,1168.00
2018-01-15T14:00:41.499Z,1196.00
2018-01-15T14:01:41.497Z,1220.00
2018-01-15T14:02:41.504Z,1244.00
2018-01-15T14:03:41.491Z,1284.00
2018-01-15T14:04:41.489Z,1348.00
2018-01-15T14:05:41.485Z,1436.00
2018-01-15T14:06:41.497Z,1552.00
2018-01-15T14:07:41.494Z,1400.00
2018-01-15T14:08:41.493Z,1364.00
2018-01-15T14:09:41.475Z,1364.00
2018-01-15T14:10:41.487Z,1420.00
2018-01-15T14:11:41.483Z,1452.00
2018-01-15T14:12:41.461Z,1508.00
2018-01-15T14:13:41.463Z,1528.00
2018-01-15T14:14:41.455Z,1680.00
2018-01-15T14:15:41.472Z,1456.00
2018-01-15T14:16:41.454Z,1392.00
2018-01-15T14:17:41.448Z,1352.00
2018-01-15T14:18:41.448Z,1284.00
2018-01-15T14:19:41.461Z,1236.00
2018-01-15T14:20:41.443Z,1200.00
2018-01-15T14:21:41.437Z,1168.00
2018-01-15T14:22:41.454Z,1148.00
2018-01-15T14:23:41.451Z,1132.00
2018-01-15T14:24:41.453Z,1120.00
2018-01-15T14:25:41.431Z,1124.00
2018-01-15T14:26:41.439Z,1144.00
2018-01-15T14:27:41.425Z,1160.00
2018-01-15T14:28:41.434Z,1172.00
2018-01-15T14:29:41.436Z,1176.00
2018-01-15T14:30:41.418Z,1172.00
2018-01-15T14:31:41.430Z,1160.00
2018-01-15T14:32:41.410Z,1132.00
2018-01-15T14:33:41.407Z,1124.00
2018-01-15T14:34:41.459Z,1112.00
2018-01-15T14:35:41.448Z,1120.00
2018-01-15T14:36:41.404Z,1140.00
2018-01-15T14:37:41.503Z,1164.00
2018-01-15T14:38:41.410Z,1196.00
2018-01-15T14:39:41.414Z,1228.00
2018-01-15T14:40:41.410Z,1248.00
2018-01-15T14:41:41.393Z,1272.00
2018-01-15T14:42:41.401Z,1292.00
2018-01-15T14:43:41.388Z,1320.00
2018-01-15T14:44:41.386Z,1320.00
2018-01-15T14:45:41.388Z,1368.00
2018-01-15T14:46:41.395Z,1376.00
2018-01-15T14:47:41.382Z,1412.00
2018-01-15T14:48:41.373Z,1428.00
2018-01-15T14:49:41.390Z,1464.00
2018-01-15T14:50:41.372Z,1512.00
2018-01-15T14:51:41.470Z,1580.00
2018-01-15T14:52:41.381Z,1708.00
2018-01-15T14:53:41.381Z,1808.00
2018-01-15T14:54:41.378Z,2004.00
2018-01-15T14:55:41.377Z,2332.00
2018-01-15T14:56:41.375Z,2032.00
2018-01-15T14:57:41.369Z,1696.00
2018-01-15T14:58:41.349Z,1684.00
2018-01-15T14:59:41.353Z,1576.00
2018-01-15T15:00:41.367Z,2060.00
2018-01-15T15:01:41.361Z,1672.00
2018-01-15T15:02:41.362Z,1664.00
2018-01-15T15:03:41.346Z,1612.00
2018-01-15T15:04:41.340Z,1656.00
2018-01-15T15:05:41.354Z,1972.00
2018-01-15T15:06:41.336Z,1760.00
2018-01-15T15:07:41.349Z,1800.00
2018-01-15T15:08:41.334Z,1704.00
2018-01-15T15:09:41.351Z,1540.00
2018-01-15T15:10:41.334Z,1488.00
2018-01-15T15:11:41.347Z,1428.00
2018-01-15T15:12:41.342Z,1400.00
2018-01-15T15:13:41.326Z,1388.00
2018-01-15T15:14:41.324Z,1388.00
2018-01-15T15:15:41.321Z,1368.00
2018-01-15T15:16:41.327Z,1340.00
2018-01-15T15:17:41.322Z,1324.00
2018-01-15T15:18:41.334Z,1404.00
2018-01-15T15:19:41.337Z,1416.00
2018-01-15T15:20:41.317Z,1352.00
2018-01-15T15:21:41.335Z,1424.00
2018-01-15T15:22:41.314Z,1368.00
2018-01-15T15:23:41.313Z,1520.00
2018-01-15T15:24:41.329Z,1604.00
2018-01-15T15:25:41.314Z,1660.00
2018-01-15T15:26:41.328Z,1584.00
2018-01-15T15:27:41.311Z,1340.00
2018-01-15T15:28:41.325Z,1612.00
2018-01-15T15:29:41.304Z,1316.00
2018-01-15T15:30:41.306Z,1528.00
2018-01-15T15:31:41.301Z,1392.00
2018-01-15T15:32:41.304Z,1544.00
2018-01-15T15:33:41.321Z,1596.00
2018-01-15T15:34:41.312Z,1560.00
2018-01-15T15:35:41.300Z,1252.00
2018-01-15T15:36:41.295Z,1352.00
2018-01-15T15:37:41.298Z,1380.00
2018-01-15T15:38:41.296Z,1592.00
2018-01-15T15:39:41.294Z,1624.00
2018-01-15T15:40:41.289Z,1588.00
2018-01-15T15:41:41.307Z,1680.00
2018-01-15T15:42:41.305Z,1444.00
2018-01-15T15:43:41.288Z,1404.00
2018-01-15T15:44:41.302Z,1736.00
2018-01-15T15:45:41.286Z,2028.00
2018-01-15T15:46:41.295Z,2164.00
2018-01-15T15:47:41.294Z,2148.00
2018-01-15T15:48:41.282Z,1712.00
2018-01-15T15:49:41.281Z,2232.00
2018-01-15T15:50:41.279Z,2296.00
2018-01-15T15:51:41.274Z,1956.00
2018-01-15T15:52:41.288Z,2064.00
2018-01-15T15:53:41.292Z,1624.00
2018-01-15T15:54:41.290Z,1588.00
2018-01-15T15:55:41.289Z,1480.00
2018-01-15T15:56:41.289Z,1428.00
2018-01-15T15:57:41.288Z,1376.00
2018-01-15T15:58:41.282Z,1416.00
2018-01-15T15:59:41.286Z,1248.00
2018-01-15T16:00:41.270Z,1476.00
2018-01-15T16:01:41.285Z,1476.00
2018-01-15T16:02:41.384Z,1392.00
2018-01-15T16:03:41.267Z,1492.00
2018-01-15T16:04:41.282Z,1432.00
2018-01-15T16:05:41.279Z,1480.00
2018-01-15T16:06:41.265Z,1620.00
2018-01-15T16:07:41.264Z,1684.00
2018-01-15T16:08:41.279Z,1604.00
2018-01-15T16:09:41.263Z,1588.00
2018-01-15T16:10:41.277Z,1600.00
2018-01-15T16:11:41.276Z,1556.00
2018-01-15T16:12:41.271Z,1720.00
2018-01-15T16:13:41.262Z,1648.00
2018-01-15T16:14:41.253Z,1620.00
2018-01-15T16:15:41.268Z,1564.00
2018-01-15T16:16:41.267Z,1600.00
2018-01-15T16:17:41.252Z,1772.00
2018-01-15T16:18:41.269Z,1856.00
2018-01-15T16:19:41.254Z,1904.00
2018-01-15T16:20:41.254Z,1744.00
2018-01-15T16:21:41.268Z,1492.00
2018-01-15T16:22:41.266Z,1480.00
2018-01-15T16:23:41.267Z,1588.00
2018-01-15T16:24:41.267Z,1364.00
2018-01-15T16:25:41.245Z,1312.00
2018-01-15T16:26:41.248Z,1500.00
2018-01-15T16:27:41.248Z,1440.00
2018-01-15T16:28:41.259Z,1428.00
2018-01-15T16:29:41.263Z,1624.00
2018-01-15T16:30:41.247Z,1368.00
2018-01-15T16:31:41.243Z,1252.00
2018-01-15T16:32:41.247Z,1368.00
2018-01-15T16:33:41.261Z,1380.00
2018-01-15T16:34:41.260Z,1744.00
2018-01-15T16:35:41.260Z,1652.00
2018-01-15T16:36:41.246Z,1320.00
2018-01-15T16:37:41.259Z,1412.00
2018-01-15T16:38:41.259Z,1476.00
2018-01-15T16:39:41.239Z,1220.00
2018-01-15T16:40:41.243Z,1088.00
2018-01-15T16:41:41.237Z,1136.00
2018-01-15T16:42:41.248Z,976.00
2018-01-15T16:43:41.253Z,1116.00
2018-01-15T16:44:41.257Z,1124.00
2018-01-15T16:45:41.257Z,1076.00
2018-01-15T16:46:41.241Z,964.00
2018-01-15T16:47:41.240Z,824.00
2018-01-15T16:48:41.240Z,1032.00
2018-01-15T16:49:41.245Z,1024.00
2018-01-15T16:50:41.238Z,1116.00
2018-01-15T16:51:41.253Z,952.00
2018-01-15T16:52:41.253Z,1000.00
2018-01-15T16:53:41.252Z,1024.00
2018-01-15T16:54:41.236Z,976.00
2018-01-15T16:55:41.235Z,960.00
2018-01-15T16:56:41.246Z,920.00
2018-01-15T16:57:41.234Z,900.00
2018-01-15T16:58:41.257Z,848.00
2018-01-15T16:59:41.244Z,856.00
2018-01-15T17:00:41.251Z,936.00
2018-01-15T17:01:41.251Z,800.00
2018-01-15T17:02:41.237Z,852.00
2018-01-15T17:03:41.229Z,884.00
2018-01-15T17:04:41.226Z,924.00
2018-01-15T17:05:41.230Z,996.00
2018-01-15T17:06:41.247Z,932.00
2018-01-15T17:07:41.223Z,1080.00
2018-01-15T17:08:41.227Z,1100.00
2018-01-15T17:09:41.226Z,1052.00
2018-01-15T17:10:41.221Z,932.00
2018-01-15T17:11:41.244Z,932.00
2018-01-15T17:12:41.244Z,912.00
2018-01-15T17:13:41.244Z,904.00
2018-01-15T17:14:41.243Z,912.00
2018-01-15T17:15:41.226Z,904.00
2018-01-15T17:16:41.242Z,884.00
2018-01-15T17:17:41.223Z,880.00
2018-01-15T17:18:41.220Z,444.00
2018-01-15T17:19:41.240Z,920.00
2018-01-15T17:20:41.220Z,884.00
2018-01-15T17:21:41.216Z,856.00
2018-01-15T17:22:41.219Z,892.00
2018-01-15T17:23:41.235Z,900.00
2018-01-15T17:24:41.238Z,892.00
2018-01-15T17:25:41.238Z,924.00
2018-01-15T17:26:41.233Z,876.00
2018-01-15T17:27:41.234Z,864.00
2018-01-15T17:28:41.233Z,852.00
2018-01-15T17:29:41.237Z,896.00
2018-01-15T17:30:41.237Z,892.00
2018-01-15T17:31:41.233Z,864.00
2018-01-15T17:32:41.229Z,836.00
2018-01-15T17:33:41.237Z,848.00
2018-01-15T17:34:41.236Z,836.00
2018-01-15T17:35:41.233Z,832.00
2018-01-15T17:36:41.233Z,824.00
2018-01-15T17:37:41.233Z,836.00
2018-01-15T17:38:41.232Z,836.00
2018-01-15T17:39:41.240Z,836.00
2018-01-15T17:40:41.238Z,868.00
2018-01-15T17:41:41.234Z,872.00
2018-01-15T17:42:41.233Z,868.00
2018-01-15T17:43:41.234Z,840.00
2018-01-15T17:44:41.230Z,824.00
2018-01-15T17:45:41.235Z,828.00
2018-01-15T17:46:41.238Z,844.00
2018-01-15T17:47:41.239Z,792.00
2018-01-15T17:48:41.235Z,804.00
2018-01-15T17:49:41.236Z,836.00
2018-01-15T17:50:41.234Z,824.00
2018-01-15T17:51:41.239Z,836.00
2018-01-15T17:52:41.236Z,824.00
2018-01-15T17:53:41.235Z,828.00
2018-01-15T17:54:41.241Z,844.00
2018-01-15T17:55:41.235Z,848.00
2018-01-15T17:56:41.231Z,888.00
2018-01-15T17:57:41.234Z,852.00
2018-01-15T17:58:41.219Z,852.00
2018-01-15T17:59:41.239Z,840.00
2018-01-15T18:00:41.235Z,840.00
2018-01-15T18:01:41.240Z,848.00
2018-01-15T18:02:41.215Z,864.00
2018-01-15T18:03:41.235Z,844.00
2018-01-15T18:04:41.237Z,868.00
2018-01-15T18:05:41.220Z,892.00
2018-01-15T18:06:41.239Z,896.00
2018-01-15T18:07:41.214Z,884.00
2018-01-15T18:08:41.220Z,884.00
2018-01-15T18:09:41.216Z,884.00
2018-01-15T18:10:41.244Z,896.00
2018-01-15T18:11:41.223Z,916.00
2018-01-15T18:12:41.239Z,936.00
2018-01-15T18:13:41.234Z,992.00
2018-01-15T18:14:41.218Z,1008.00
2018-01-15T18:15:41.215Z,520.00
2018-01-15T18:16:41.239Z,1112.00
2018-01-15T18:17:41.219Z,800.00
2018-01-15T18:18:41.238Z,464.00
2018-01-15T18:19:41.215Z,392.00
2018-01-15T18:20:41.219Z,1044.00
2018-01-15T18:21:41.239Z,1064.00
2018-01-15T18:22:41.219Z,1008.00
2018-01-15T18:23:41.216Z,940.00
2018-01-15T18:24:41.220Z,488.00
2018-01-15T18:25:41.220Z,860.00
2018-01-15T18:26:41.239Z,1116.00
2018-01-15T18:27:41.220Z,1064.00
2018-01-15T18:28:41.220Z,1044.00
2018-01-15T18:29:41.221Z,1032.00
2018-01-15T18:30:41.240Z,976.00
2018-01-15T18:31:41.217Z,972.00
2018-01-15T18:32:41.218Z,1012.00
2018-01-15T18:33:41.223Z,304.00
2018-01-15T18:34:41.240Z,988.00
2018-01-15T18:35:41.222Z,992.00
2018-01-15T18:36:41.237Z,740.00
2018-01-15T18:37:41.242Z,956.00
2018-01-15T18:38:41.223Z,932.00
2018-01-15T18:39:41.242Z,928.00
2018-01-15T18:40:41.243Z,920.00
2018-01-15T18:41:41.243Z,588.00
2018-01-15T18:42:41.220Z,908.00
2018-01-15T18:43:41.224Z,920.00
2018-01-15T18:44:41.245Z,924.00
2018-01-15T18:45:41.240Z,916.00
2018-01-15T18:46:41.225Z,920.00
2018-01-15T18:47:41.221Z,964.00
2018-01-15T18:48:41.268Z,952.00
2018-01-15T18:49:41.242Z,844.00
2018-01-15T18:50:41.223Z,940.00
2018-01-15T18:51:41.222Z,924.00
2018-01-15T18:52:41.243Z,964.00
2018-01-15T18:53:41.231Z,972.00
2018-01-15T18:54:41.243Z,984.00
2018-01-15T18:55:41.240Z,948.00
2018-01-15T18:56:41.244Z,932.00
2018-01-15T18:57:41.229Z,904.00
2018-01-15T18:58:41.229Z,916.00
2018-01-15T18:59:41.241Z,928.00
2018-01-15T19:00:41.242Z,932.00
2018-01-15T19:01:41.246Z,944.00
2018-01-15T19:02:41.230Z,1080.00
2018-01-15T19:03:41.246Z,1000.00
2018-01-15T19:04:41.248Z,984.00
2018-01-15T19:05:41.246Z,992.00
2018-01-15T19:06:41.242Z,976.00
2018-01-15T19:07:41.244Z,964.00
2018-01-15T19:08:41.247Z,960.00
2018-01-15T19:09:41.248Z,960.00
2018-01-15T19:10:41.247Z,968.00
2018-01-15T19:11:41.228Z,964.00
2018-01-15T19:12:41.243Z,960.00
2018-01-15T19:13:41.244Z,972.00
2018-01-15T19:14:41.276Z,956.00
2018-01-15T19:15:41.243Z,1004.00
2018-01-15T19:16:41.229Z,1032.00
2018-01-15T19:17:41.244Z,1056.00
2018-01-15T19:18:41.229Z,1052.00
2018-01-15T19:19:41.229Z,1040.00
2018-01-15T19:20:41.229Z,1032.00
2018-01-15T19:21:41.232Z,1056.00
2018-01-15T19:22:41.230Z,1040.00
2018-01-15T19:23:41.231Z,1040.00
2018-01-15T19:24:41.232Z,1076.00
2018-01-15T19:25:41.236Z,1100.00
2018-01-15T19:26:41.236Z,1100.00
2018-01-15T19:27:41.235Z,1112.00
2018-01-15T19:28:41.238Z,1100.00
2018-01-15T19:29:41.234Z,1100.00
2018-01-15T19:30:41.234Z,1100.00
2018-01-15T19:31:41.240Z,1104.00
2018-01-15T19:32:41.236Z,1144.00
2018-01-15T19:33:41.240Z,1152.00
2018-01-15T19:34:41.236Z,1148.00
2018-01-15T19:35:41.237Z,1144.00
2018-01-15T19:36:41.238Z,620.00
2018-01-15T19:37:41.239Z,420.00
2018-01-15T19:38:41.243Z,468.00
2018-01-15T19:39:41.240Z,672.00
2018-01-15T19:40:41.245Z,408.00
2018-01-15T19:41:41.242Z,396.00
2018-01-15T19:42:41.243Z,412.00
2018-01-15T19:43:41.242Z,420.00
2018-01-15T19:44:41.246Z,708.00
2018-01-15T19:45:41.244Z,552.00
2018-01-15T19:46:41.247Z,756.00
2018-01-15T19:47:41.248Z,700.00
2018-01-15T19:48:41.244Z,1092.00
2018-01-15T19:49:41.245Z,1016.00
2018-01-15T19:50:41.245Z,580.00
2018-01-15T19:51:41.249Z,536.00
2018-01-15T19:52:41.247Z,524.00
2018-01-15T19:53:41.251Z,468.00
2018-01-15T19:54:41.246Z,420.00
2018-01-15T19:55:41.247Z,388.00
2018-01-15T19:56:41.248Z,380.00
2018-01-15T19:57:41.252Z,376.00
2018-01-15T19:58:41.248Z,376.00
2018-01-15T19:59:41.248Z,368.00
2018-01-15T20:00:41.249Z,352.00
2018-01-15T20:01:41.249Z,380.00
2018-01-15T20:02:41.249Z,400.00
2018-01-15T20:03:41.249Z,440.00
2018-01-15T20:04:41.249Z,460.00
2018-01-15T20:05:41.250Z,512.00
2018-01-15T20:06:41.249Z,524.00
2018-01-15T20:07:41.253Z,764.00
2018-01-15T20:08:41.248Z,524.00
2018-01-15T20:09:41.251Z,560.00
2018-01-15T20:10:41.250Z,548.00
2018-01-15T20:11:41.257Z,500.00
2018-01-15T20:12:41.250Z,496.00
2018-01-15T20:13:41.255Z,504.00
2018-01-15T20:14:41.271Z,508.00
2018-01-15T20:15:41.256Z,520.00
2018-01-15T20:16:41.267Z,536.00
2018-01-15T20:17:41.357Z,488.00
2018-01-15T20:18:41.252Z,480.00
2018-01-15T20:19:41.252Z,460.00
2018-01-15T20:20:41.265Z,456.00
2018-01-15T20:21:41.258Z,448.00
2018-01-15T20:22:41.251Z,452.00
2018-01-15T20:23:41.253Z,476.00
2018-01-15T20:24:41.284Z,480.00
2018-01-15T20:25:41.254Z,472.00
2018-01-15T20:26:41.274Z,440.00
2018-01-15T20:27:41.258Z,412.00
2018-01-15T20:28:41.270Z,384.00
2018-01-15T20:29:41.274Z,360.00
2018-01-15T20:30:41.311Z,348.00
2018-01-15T20:31:41.275Z,336.00
2018-01-15T20:32:41.275Z,336.00
2018-01-15T20:33:41.275Z,352.00
2018-01-15T20:34:41.271Z,380.00
2018-01-15T20:35:41.281Z,380.00
2018-01-15T20:36:41.280Z,352.00
2018-01-15T20:37:41.272Z,340.00
2018-01-15T20:38:41.276Z,328.00
2018-01-15T20:39:41.276Z,332.00
2018-01-15T20:40:41.277Z,320.00
2018-01-15T20:41:41.281Z,320.00
2018-01-15T20:46:10.982Z,300.00
2018-01-15T20:47:10.988Z,292.00
2018-01-15T20:48:10.984Z,280.00
2018-01-15T20:49:10.985Z,272.00
2018-01-15T20:50:10.989Z,268.00
2018-01-15T20:51:10.984Z,260.00
2018-01-15T20:52:10.988Z,252.00
2018-01-15T20:53:10.984Z,244.00
2018-01-15T20:54:10.965Z,240.00
2018-01-15T20:55:10.988Z,232.00
2018-01-15T20:56:10.964Z,224.00
2018-01-15T20:57:10.987Z,220.00
2018-01-15T20:58:10.991Z,216.00
2018-01-15T20:59:11.088Z,204.00
2018-01-15T21:00:10.983Z,200.00
2018-01-15T21:01:10.967Z,192.00
2018-01-15T21:02:10.973Z,188.00
2018-01-15T21:03:10.970Z,184.00
2018-01-15T21:04:10.968Z,180.00
2018-01-15T21:05:10.962Z,172.00
2018-01-15T21:06:10.963Z,168.00
2018-01-15T21:07:10.965Z,160.00
2018-01-15T21:08:10.968Z,156.00
2018-01-15T21:09:10.966Z,148.00
2018-01-15T21:10:10.965Z,144.00
2018-01-15T21:11:10.964Z,136.00
2018-01-15T21:12:10.960Z,132.00
2018-01-15T21:13:10.960Z,124.00
2018-01-15T21:14:10.960Z,120.00
2018-01-15T21:15:10.963Z,116.00
2018-01-15T21:16:10.958Z,112.00
2018-01-15T21:17:10.958Z,104.00
2018-01-15T21:18:10.962Z,104.00
2018-01-15T21:19:10.957Z,96.00
2018-01-15T21:20:10.960Z,96.00
2018-01-15T21:21:10.956Z,88.00
2018-01-15T21:22:10.956Z,84.00
2018-01-15T21:23:10.965Z,80.00
2018-01-15T21:24:10.960Z,80.00
2018-01-15T21:25:10.974Z,72.00
2018-01-15T21:26:10.969Z,72.00
2018-01-15T21:27:10.974Z,64.00
2018-01-15T21:28:10.957Z,60.00
2018-01-15T21:29:10.957Z,60.00
2018-01-15T21:30:10.952Z,60.00
2018-01-15T21:31:10.970Z,52.00
2018-01-15T21:32:10.951Z,52.00
2018-01-15T21:33:10.969Z,48.00
2018-01-15T21:34:10.970Z,44.00
2018-01-15T21:35:10.948Z,44.00
2018-01-15T21:36:10.963Z,44.00
2018-01-15T21:37:10.951Z,36.00
2018-01-15T21:38:10.950Z,36.00
2018-01-15T21:39:10.945Z,36.00
2018-01-15T21:40:10.945Z,28.00
2018-01-15T21:41:10.953Z,32.00
2018-01-15T21:42:10.963Z,28.00
2018-01-15T21:43:10.957Z,24.00
2018-01-15T21:44:10.957Z,24.00
2018-01-15T21:45:10.962Z,20.00
2018-01-15T21:46:10.945Z,20.00
2018-01-15T21:47:10.943Z,20.00
2018-01-15T21:48:10.958Z,16.00
2018-01-15T21:49:10.938Z,16.00
2018-01-15T21:50:11.010Z,12.00
2018-01-15T21:51:10.951Z,16.00
2018-01-15T21:52:10.954Z,12.00
2018-01-15T21:53:10.939Z,8.00
2018-01-15T21:54:10.934Z,12.00
2018-01-15T21:55:10.932Z,8.00
2018-01-15T21:56:10.935Z,8.00
2018-01-15T21:57:10.930Z,8.00
2018-01-15T21:58:10.949Z,4.00
2018-01-15T21:59:11.028Z,4.00
2018-01-15T22:00:10.927Z,4.00
2018-01-15T22:01:10.926Z,4.00
2018-01-15T22:02:11.246Z,0.00
2018-01-15T22:03:10.923Z,4.00
2018-01-15T22:04:10.939Z,8.00
2018-01-15T22:05:10.927Z,8.00
2018-01-15T22:06:10.937Z,8.00
2018-01-15T22:07:10.936Z,12.00
2018-01-15T22:08:10.931Z,8.00
2018-01-15T22:09:10.924Z,8.00
2018-01-15T22:10:10.918Z,8.00
2018-01-15T22:11:10.917Z,8.00
2018-01-15T22:12:10.920Z,8.00
2018-01-15T22:13:10.915Z,8.00
2018-01-15T22:14:10.930Z,8.00
2018-01-15T22:15:10.928Z,8.00
2018-01-15T22:16:10.927Z,8.00
2018-01-15T22:17:10.928Z,8.00
2018-01-15T22:18:10.930Z,8.00
2018-01-15T22:19:10.924Z,8.00
2018-01-15T22:20:10.923Z,8.00
2018-01-15T22:21:10.922Z,4.00
2018-01-15T22:22:10.926Z,4.00
2018-01-15T22:23:10.919Z,4.00
2018-01-15T22:24:10.923Z,4.00
2018-01-15T22:25:10.923Z,4.00
2018-01-15T22:26:10.917Z,4.00
2018-01-15T22:27:10.919Z,4.00
2018-01-15T22:28:10.919Z,4.00
2018-01-15T22:29:10.913Z,4.00
2018-01-15T22:30:10.917Z,4.00
2018-01-15T22:31:10.916Z,4.00
2018-01-15T22:32:10.910Z,4.00
2018-01-15T22:33:10.910Z,4.00
2018-01-15T22:34:10.908Z,4.00
2018-01-15T22:35:10.906Z,4.00
2018-01-15T22:36:10.910Z,4.00
2018-01-15T22:37:10.905Z,4.00
2018-01-15T22:38:10.907Z,4.00
2018-01-15T22:39:10.902Z,4.00
2018-01-15T22:40:10.901Z,4.00
2018-01-15T22:41:10.900Z,4.00
2018-01-15T22:42:10.899Z,4.00
2018-01-15T22:43:10.902Z,4.00
2018-01-15T22:44:10.896Z,4.00
2018-01-15T22:45:10.896Z,4.00
2018-01-15T22:46:10.895Z,4.00
2018-01-15T22:47:10.898Z,4.00
2018-01-15T22:48:10.896Z,4.00
2018-01-15T22:49:10.891Z,4.00
2018-01-15T22:50:10.918Z,4.00
2018-01-15T22:51:10.892Z,4.00
2018-01-15T22:52:10.887Z,4.00
2018-01-15T22:53:10.890Z,4.00
2018-01-15T22:54:10.885Z,4.00
2018-01-15T22:55:10.889Z,4.00
2018-01-15T22:56:10.887Z,4.00
2018-01-15T22:57:10.886Z,4.00
2018-01-15T22:58:10.885Z,4.00
2018-01-15T22:59:10.883Z,4.00
2018-01-15T23:00:10.882Z,4.00
2018-01-15T23:01:10.887Z,4.00
2018-01-15T23:02:10.880Z,4.00
2018-01-15T23:03:10.878Z,4.00
2018-01-15T23:04:10.877Z,4.00
2018-01-15T23:05:10.876Z,4.00
2018-01-15T23:06:10.875Z,4.00
2018-01-15T23:07:10.874Z,4.00
2018-01-15T23:08:10.873Z,4.00
2018-01-15T23:09:10.871Z,4.00
2018-01-15T23:10:10.870Z,4.00
2018-01-15T23:11:10.869Z,4.00
2018-01-15T23:12:10.868Z,4.00
2018-01-15T23:13:10.866Z,4.00
2018-01-15T23:14:10.866Z,4.00
2018-01-15T23:15:10.865Z,4.00
2018-01-15T23:16:10.862Z,4.00
2018-01-15T23:17:10.861Z,4.00
2018-01-15T23:18:10.860Z,4.00
2018-01-15T23:19:10.859Z,4.00
2018-01-15T23:20:10.848Z,4.00
2018-01-15T23:21:10.847Z,4.00
2018-01-15T23:22:10.856Z,4.00
2018-01-15T23:23:10.853Z,4.00
2018-01-15T23:24:10.853Z,4.00
2018-01-15T23:25:10.853Z,4.00
2018-01-15T23:26:10.841Z,4.00
2018-01-15T23:27:10.849Z,4.00
2018-01-15T23:28:10.847Z,4.00
2018-01-15T23:29:10.846Z,4.00
2018-01-15T23:30:10.845Z,4.00
2018-01-15T23:31:10.834Z,4.00
2018-01-15T23:32:10.833Z,4.00
2018-01-15T23:33:10.839Z,4.00
2018-01-15T23:34:10.840Z,4.00
2018-01-15T23:35:10.835Z,4.00
2018-01-15T23:36:10.832Z,4.00
2018-01-15T23:37:10.831Z,4.00
2018-01-15T23:38:10.830Z,4.00
2018-01-15T23:39:10.828Z,4.00
2018-01-15T23:40:10.831Z,4.00
2018-01-15T23:41:10.826Z,4.00
2018-01-15T23:42:10.828Z,4.00
2018-01-15T23:43:10.826Z,4.00
2018-01-15T23:44:10.826Z,4.00
2018-01-15T23:45:10.824Z,4.00
2018-01-15T23:46:10.825Z,4.00
2018-01-15T23:47:10.917Z,4.00
2018-01-15T23:48:10.820Z,4.00
2018-01-15T23:49:10.809Z,4.00
2018-01-15T23:50:10.814Z,4.00
2018-01-15T23:51:10.815Z,4.00
2018-01-15T23:52:10.814Z,4.00
2018-01-15T23:53:10.809Z,4.00
2018-01-15T23:54:10.812Z,4.00
2018-01-15T23:55:10.810Z,4.00
2018-01-15T23:56:10.799Z,4.00
2018-01-15T23:57:10.809Z,4.00
2018-01-15T23:58:10.802Z,4.00
2018-01-15T23:59:10.800Z,4.00
